Time;durP1;ratioP1;P1;durP2;ratioP2;P2;SDS_P1;SDS_P2;PMS_P1;PMS_P2;Temp;Humidity;BMP_temperature;BMP_pressure;BME280_temperature;BME280_humidity;BME280_pressure;Samples;Min_cycle;Max_cycle;Signal;HPM_P1;HPM_P2
2021/04/14 00:00:51;;;;;;;4.43;3.50;;;4.50;69.00;;;;;;10458579;28;20267;-77
2021/04/14 00:05:53;;;;;;;3.60;3.30;;;4.40;69.20;;;;;;10453229;28;20217;-78
2021/04/14 00:10:55;;;;;;;7.30;4.00;;;4.40;69.90;;;;;;10440967;28;20197;-77
2021/04/14 00:15:58;;;;;;;3.77;3.40;;;4.40;69.70;;;;;;10455968;28;20220;-77
2021/04/14 00:21:00;;;;;;;3.43;3.13;;;4.40;69.10;;;;;;10458519;28;20232;-77
2021/04/14 00:26:02;;;;;;;3.73;3.50;;;4.30;69.30;;;;;;10458441;28;20217;-77
2021/04/14 00:31:05;;;;;;;4.53;3.57;;;4.30;69.50;;;;;;10455240;28;20273;-77
2021/04/14 00:36:07;;;;;;;5.40;3.40;;;4.20;69.20;;;;;;10454497;28;20267;-77
2021/04/14 00:41:13;;;;;;;3.43;3.13;;;4.20;69.00;;;;;;10456467;28;20272;-77
2021/04/14 00:46:16;;;;;;;3.23;3.00;;;4.20;69.20;;;;;;10456198;28;20276;-77
2021/04/14 00:51:19;;;;;;;3.03;2.83;;;4.10;69.80;;;;;;10457877;28;20201;-77
2021/04/14 00:56:21;;;;;;;2.83;2.63;;;4.10;69.90;;;;;;10439307;28;20248;-77
2021/04/14 01:01:25;;;;;;;3.47;3.17;;;4.10;69.90;;;;;;10453419;28;20272;-77
2021/04/14 01:06:28;;;;;;;3.77;3.00;;;4.20;70.70;;;;;;10455646;28;20665;-77
2021/04/14 01:11:31;;;;;;;3.13;2.83;;;4.20;70.20;;;;;;10439211;28;20677;-78
2021/04/14 01:16:33;;;;;;;4.13;3.83;;;4.20;70.10;;;;;;10455417;28;20216;-77
2021/04/14 01:21:39;;;;;;;3.17;2.87;;;4.10;69.80;;;;;;10455791;28;20193;-78
2021/04/14 01:26:41;;;;;;;4.30;3.20;;;4.10;69.70;;;;;;10464453;28;20717;-77
2021/04/14 01:31:42;;;;;;;3.73;3.43;;;4.00;69.70;;;;;;10462671;28;20213;-77
2021/04/14 01:36:45;;;;;;;4.60;3.60;;;4.00;70.10;;;;;;10445438;28;20217;-77
2021/04/14 01:41:46;;;;;;;3.43;3.23;;;3.90;70.30;;;;;;10464052;28;20217;-77
2021/04/14 01:46:48;;;;;;;4.07;3.77;;;3.90;70.50;;;;;;10461839;28;20225;-77
2021/04/14 01:51:50;;;;;;;2.90;2.70;;;3.90;70.50;;;;;;10463983;28;20201;-77
2021/04/14 01:56:52;;;;;;;3.70;3.40;;;3.80;70.50;;;;;;10464790;28;20304;-78
2021/04/14 02:01:54;;;;;;;3.30;3.00;;;3.80;70.40;;;;;;10462080;28;20189;-77
2021/04/14 02:06:56;;;;;;;3.17;2.93;;;3.80;70.60;;;;;;10444135;28;20307;-77
2021/04/14 02:11:58;;;;;;;3.93;3.63;;;3.80;71.40;;;;;;10460333;28;20319;-77
2021/04/14 02:17:00;;;;;;;3.20;2.90;;;3.80;71.80;;;;;;10461606;28;20217;-77
2021/04/14 02:22:03;;;;;;;3.70;3.43;;;3.80;71.20;;;;;;10461439;28;20189;-77
2021/04/14 02:27:05;;;;;;;3.30;3.10;;;3.80;71.10;;;;;;10461615;28;20288;-77
2021/04/14 02:32:07;;;;;;;4.03;3.73;;;3.80;71.50;;;;;;10460363;28;20293;-77
2021/04/14 02:37:10;;;;;;;3.60;3.40;;;3.80;71.70;;;;;;10460996;28;20292;-77
2021/04/14 02:42:11;;;;;;;4.00;3.03;;;3.80;71.40;;;;;;10461346;28;20185;-77
2021/04/14 02:47:13;;;;;;;4.67;4.10;;;3.80;72.00;;;;;;10459180;28;20229;-77
2021/04/14 02:52:15;;;;;;;4.03;3.60;;;3.70;71.70;;;;;;10460390;28;20800;-77
2021/04/14 02:57:17;;;;;;;3.80;3.40;;;3.70;72.10;;;;;;10459756;28;20228;-77
2021/04/14 03:02:19;;;;;;;3.63;2.93;;;3.70;72.30;;;;;;10460259;28;20201;-77
2021/04/14 03:07:21;;;;;;;3.17;2.93;;;3.70;71.90;;;;;;10459294;28;20193;-77
2021/04/14 03:12:23;;;;;;;3.90;3.60;;;3.60;71.70;;;;;;10460244;28;20751;-77
2021/04/14 03:17:26;;;;;;;4.83;3.50;;;3.60;72.30;;;;;;10459373;28;20280;-77
2021/04/14 03:22:28;;;;;;;2.97;2.77;;;3.50;72.10;;;;;;10444247;28;20690;-77
2021/04/14 03:27:30;;;;;;;3.63;3.33;;;3.50;72.00;;;;;;10450883;28;20197;-78
2021/04/14 03:32:32;;;;;;;3.63;3.33;;;3.50;72.60;;;;;;10458781;28;20213;-77
2021/04/14 03:37:35;;;;;;;3.97;3.53;;;3.40;72.70;;;;;;10457742;28;20239;-77
2021/04/14 03:42:37;;;;;;;3.87;3.67;;;3.40;72.60;;;;;;10458766;28;21111;-77
2021/04/14 03:47:38;;;;;;;4.07;3.60;;;3.40;73.00;;;;;;10458760;28;20200;-77
2021/04/14 03:52:41;;;;;;;3.80;3.50;;;3.40;73.70;;;;;;10458555;28;20702;-77
2021/04/14 03:57:43;;;;;;;4.00;3.30;;;3.40;73.20;;;;;;10457963;28;20192;-77
2021/04/14 04:02:44;;;;;;;3.60;3.30;;;3.40;73.50;;;;;;10444702;28;20280;-77
2021/04/14 04:07:47;;;;;;;7.30;4.07;;;3.40;73.40;;;;;;10454013;28;20205;-77
2021/04/14 04:12:48;;;;;;;3.20;2.87;;;3.40;73.50;;;;;;10449115;28;20225;-77
2021/04/14 04:17:50;;;;;;;4.53;4.20;;;3.40;73.90;;;;;;10455595;28;20197;-77
2021/04/14 04:22:52;;;;;;;3.93;3.60;;;3.40;73.70;;;;;;10457738;28;20232;-78
2021/04/14 04:27:54;;;;;;;4.67;4.27;;;3.40;73.90;;;;;;10456929;28;20295;-77
2021/04/14 04:32:57;;;;;;;4.83;4.20;;;3.40;73.70;;;;;;10456945;28;20248;-77
2021/04/14 04:38:00;;;;;;;4.93;4.47;;;3.30;73.70;;;;;;10455617;28;20201;-77
2021/04/14 04:43:02;;;;;;;6.03;4.30;;;3.30;74.80;;;;;;10444338;28;20240;-77
2021/04/14 04:48:05;;;;;;;4.60;4.20;;;3.30;73.90;;;;;;10453535;28;20247;-77
2021/04/14 04:53:11;;;;;;;5.70;4.17;;;3.30;73.50;;;;;;10460035;28;20225;-78
2021/04/14 04:58:13;;;;;;;4.67;3.30;;;3.20;73.50;;;;;;10450908;28;20235;-77
2021/04/14 05:03:16;;;;;;;3.77;3.20;;;3.20;73.60;;;;;;10436847;28;20217;-81
2021/04/14 05:08:19;;;;;;;7.33;6.47;;;3.20;73.80;;;;;;10422734;28;20560;-81
2021/04/14 05:13:25;;;;;;;3.87;3.47;;;3.20;74.30;;;;;;10445044;28;20226;-81
2021/04/14 05:18:26;;;;;;;5.43;5.00;;;3.20;74.40;;;;;;10449215;28;20572;-81
2021/04/14 05:23:29;;;;;;;4.50;4.10;;;3.20;74.10;;;;;;10442502;28;20209;-80
2021/04/14 05:28:31;;;;;;;5.80;4.33;;;3.30;73.70;;;;;;10433951;28;20218;-81
2021/04/14 05:33:32;;;;;;;5.73;4.17;;;3.30;73.30;;;;;;10444740;28;20228;-80
2021/04/14 05:38:35;;;;;;;3.93;3.30;;;3.40;73.70;;;;;;10449203;28;20552;-80
2021/04/14 05:43:39;;;;;;;5.23;3.87;;;3.50;73.80;;;;;;10450384;28;20225;-80
2021/04/14 05:48:42;;;;;;;4.27;3.97;;;3.60;73.90;;;;;;10423573;28;20208;-80
2021/04/14 05:53:47;;;;;;;10.20;9.10;;;3.70;74.60;;;;;;10435054;28;20744;-80
2021/04/14 05:58:48;;;;;;;5.87;5.27;;;3.80;74.20;;;;;;10435624;28;20210;-80
2021/04/14 06:03:50;;;;;;;8.77;5.97;;;3.80;74.10;;;;;;10433481;28;20325;-80
2021/04/14 06:08:53;;;;;;;7.00;6.30;;;3.90;74.50;;;;;;10455199;28;20232;-80
2021/04/14 06:13:55;;;;;;;12.20;8.00;;;3.90;74.40;;;;;;10463815;28;20224;-80
2021/04/14 06:18:57;;;;;;;11.20;8.93;;;4.00;74.70;;;;;;10459860;28;20247;-80
2021/04/14 06:24:00;;;;;;;8.80;7.47;;;4.10;75.50;;;;;;10461775;28;20213;-80
2021/04/14 06:29:01;;;;;;;8.97;6.37;;;4.30;75.40;;;;;;10460000;28;20198;-80
2021/04/14 06:34:03;;;;;;;7.80;6.10;;;4.60;75.30;;;;;;10461936;28;20255;-80
2021/04/14 06:39:08;;;;;;;7.43;6.73;;;4.90;74.60;;;;;;10463294;28;20197;-80
2021/04/14 06:44:18;;;;;;;8.03;7.23;;;5.20;72.20;;;;;;10459542;28;20205;-80
2021/04/14 06:49:25;;;;;;;7.47;6.77;;;5.50;72.20;;;;;;10458631;28;20193;-80
2021/04/14 06:54:36;;;;;;;6.77;6.07;;;5.90;70.90;;;;;;10459389;28;20209;-81
2021/04/14 06:59:38;;;;;;;8.20;5.90;;;6.20;69.90;;;;;;10460399;28;20204;-81
2021/04/14 07:04:45;;;;;;;8.33;6.70;;;6.50;68.10;;;;;;10464915;28;20224;-80
2021/04/14 07:09:49;;;;;;;6.47;6.07;;;6.70;67.10;;;;;;10465165;28;20201;-80
2021/04/14 07:14:55;;;;;;;7.53;6.80;;;7.00;67.00;;;;;;10462160;28;20300;-80
2021/04/14 07:20:23;;;;;;;8.83;7.20;;;7.20;65.80;;;;;;10455790;28;20174;-81
2021/04/14 07:25:33;;;;;;;7.43;6.43;;;7.30;64.90;;;;;;10461061;28;20209;-80
2021/04/14 07:30:39;;;;;;;8.50;7.70;;;7.20;66.10;;;;;;10463251;28;20197;-80
2021/04/14 07:35:51;;;;;;;9.50;7.90;;;7.20;65.90;;;;;;10459718;28;20236;-81
2021/04/14 07:41:02;;;;;;;8.80;7.83;;;7.10;66.30;;;;;;10461037;28;20193;-80
2021/04/14 07:46:08;;;;;;;7.90;6.90;;;7.00;66.20;;;;;;10455785;28;20214;-80
2021/04/14 07:51:14;;;;;;;7.77;6.73;;;7.00;66.60;;;;;;10460546;28;20204;-80
2021/04/14 07:56:19;;;;;;;6.07;5.47;;;7.00;67.20;;;;;;10466770;28;20757;-80
2021/04/14 08:01:22;;;;;;;6.53;6.03;;;7.20;67.50;;;;;;10461189;28;20189;-80
2021/04/14 08:06:27;;;;;;;6.07;5.13;;;7.40;66.70;;;;;;10440253;28;20695;-80
2021/04/14 08:11:33;;;;;;;6.53;5.93;;;7.60;66.40;;;;;;10457502;28;20243;-80
2021/04/14 08:16:36;;;;;;;4.93;4.33;;;7.80;66.10;;;;;;10458960;28;20217;-80
2021/04/14 08:21:41;;;;;;;5.77;5.17;;;8.10;64.60;;;;;;10457871;28;20276;-80
2021/04/14 08:26:54;;;;;;;7.70;4.97;;;8.40;64.40;;;;;;10458048;28;20801;-80
2021/04/14 08:31:57;;;;;;;7.03;4.43;;;8.70;63.10;;;;;;10457869;28;20220;-80
2021/04/14 08:37:05;;;;;;;7.17;4.93;;;8.90;61.90;;;;;;10457787;28;20213;-80
2021/04/14 08:42:15;;;;;;;4.17;3.87;;;9.00;61.70;;;;;;10458079;28;20211;-80
2021/04/14 08:47:25;;;;;;;4.30;3.60;;;9.20;59.70;;;;;;10455824;28;20699;-80
2021/04/14 08:52:28;;;;;;;5.07;3.50;;;9.30;59.30;;;;;;10450968;28;20225;-80
2021/04/14 08:57:31;;;;;;;4.33;3.97;;;9.50;59.90;;;;;;10517129;22;20228;-79
2021/04/14 09:02:34;;;;;;;4.90;3.70;;;9.70;59.00;;;;;;10498260;28;20193;-79
2021/04/14 09:07:38;;;;;;;5.50;5.00;;;9.90;59.00;;;;;;10496902;28;20217;-79
2021/04/14 09:12:50;;;;;;;4.33;3.80;;;10.10;57.60;;;;;;10499107;28;20226;-80
2021/04/14 09:18:04;;;;;;;5.80;3.60;;;10.30;57.10;;;;;;10500219;28;20192;-79
2021/04/14 09:23:07;;;;;;;3.93;3.63;;;10.40;57.20;;;;;;10505886;28;20192;-79
2021/04/14 09:28:23;;;;;;;12.17;4.20;;;10.60;55.40;;;;;;10502756;28;20200;-80
2021/04/14 09:33:41;;;;;;;4.90;3.90;;;10.70;54.80;;;;;;10489446;28;20668;-79
2021/04/14 09:38:48;;;;;;;3.90;3.47;;;10.90;55.50;;;;;;10494679;28;20262;-80
2021/04/14 09:43:52;;;;;;;5.23;4.73;;;11.10;55.30;;;;;;10498613;28;20213;-80
2021/04/14 09:48:54;;;;;;;4.40;4.00;;;11.40;54.80;;;;;;10503423;28;20201;-80
2021/04/14 09:53:59;;;;;;;3.43;3.13;;;11.80;54.70;;;;;;10505927;28;20217;-80
2021/04/14 09:59:09;;;;;;;5.33;4.83;;;12.20;53.80;;;;;;10503277;28;20221;-80
2021/04/14 10:04:17;;;;;;;3.57;3.27;;;12.80;52.90;;;;;;10502763;28;20216;-79
2021/04/14 10:09:22;;;;;;;3.40;3.10;;;13.30;49.00;;;;;;10503287;28;20295;-80
2021/04/14 10:14:26;;;;;;;3.03;2.83;;;13.30;48.00;;;;;;10504175;28;20247;-80
2021/04/14 10:19:31;;;;;;;3.23;3.00;;;13.00;48.20;;;;;;10487987;28;20203;-79
2021/04/14 10:24:32;;;;;;;3.03;2.83;;;12.60;45.90;;;;;;10505216;28;20214;-79
2021/04/14 10:29:39;;;;;;;4.07;2.80;;;12.30;47.30;;;;;;10505032;28;20196;-80
2021/04/14 10:34:41;;;;;;;3.70;3.40;;;12.10;47.50;;;;;;10506156;28;20224;-79
2021/04/14 10:39:43;;;;;;;4.83;3.70;;;11.90;47.40;;;;;;10506561;28;20197;-79
2021/04/14 10:44:47;;;;;;;3.20;2.80;;;11.60;50.30;;;;;;10488166;28;20620;-79
2021/04/14 10:49:50;;;;;;;4.17;3.20;;;11.10;52.20;;;;;;10497939;28;20651;-78
2021/04/14 10:54:54;;;;;;;2.70;2.60;;;11.00;51.90;;;;;;10497205;28;20601;-80
2021/04/14 11:00:04;;;;;;;4.93;2.87;;;10.80;52.40;;;;;;10499492;28;20576;-80
2021/04/14 11:05:09;;;;;;;5.70;3.10;;;10.70;51.90;;;;;;10503602;28;20228;-80
2021/04/14 11:10:16;;;;;;;3.43;3.13;;;10.70;52.30;;;;;;10515468;28;20542;-80
2021/04/14 11:15:22;;;;;;;3.90;3.60;;;10.80;50.50;;;;;;10501688;28;20217;-79
2021/04/14 11:20:26;;;;;;;3.17;2.97;;;11.00;50.40;;;;;;10503584;28;20193;-79
2021/04/14 11:25:30;;;;;;;3.43;3.23;;;11.20;49.40;;;;;;10504636;28;20213;-79
2021/04/14 11:30:47;;;;;;;3.00;2.80;;;11.60;49.80;;;;;;10507727;28;20556;-79
2021/04/14 11:35:50;;;;;;;3.50;3.30;;;12.00;49.00;;;;;;10498578;28;20247;-80
2021/04/14 11:40:53;;;;;;;3.80;3.50;;;12.30;48.50;;;;;;10500045;28;20243;-79
2021/04/14 11:46:02;;;;;;;3.23;3.03;;;12.40;48.40;;;;;;10497864;28;20651;-79
2021/04/14 11:51:28;;;;;;;3.87;3.53;;;12.70;49.00;;;;;;10498531;28;20216;-79
2021/04/14 11:56:44;;;;;;;4.53;3.07;;;12.80;47.70;;;;;;10499588;28;20612;-80
2021/04/14 12:01:52;;;;;;;3.00;2.80;;;12.90;48.00;;;;;;10497924;28;20192;-79
2021/04/14 12:06:54;;;;;;;5.73;3.03;;;13.00;46.20;;;;;;10497025;28;20219;-79
2021/04/14 12:12:01;;;;;;;2.80;2.60;;;13.00;45.60;;;;;;10500912;28;20196;-80
2021/04/14 12:17:04;;;;;;;2.97;2.77;;;12.90;45.70;;;;;;10500604;28;20204;-80
2021/04/14 12:22:06;;;;;;;3.33;3.03;;;12.90;44.20;;;;;;10499327;28;20188;-80
2021/04/14 12:27:09;;;;;;;3.20;3.00;;;12.70;45.40;;;;;;10501722;28;20271;-80
2021/04/14 12:32:11;;;;;;;6.20;3.77;;;12.60;46.50;;;;;;10501073;28;20197;-80
2021/04/14 12:37:13;;;;;;;3.67;3.23;;;12.60;47.50;;;;;;10501108;28;20228;-81
2021/04/14 12:42:15;;;;;;;3.37;3.07;;;12.50;50.40;;;;;;10505002;28;20292;-79
2021/04/14 12:47:21;;;;;;;4.63;3.37;;;12.40;50.60;;;;;;10487979;28;20615;-79
2021/04/14 12:52:31;;;;;;;5.03;3.10;;;12.20;50.60;;;;;;10477071;28;20210;-80
2021/04/14 12:57:41;;;;;;;5.53;3.00;;;12.00;51.90;;;;;;10472220;28;20325;-79
2021/04/14 13:02:47;;;;;;;4.03;3.20;;;11.90;52.00;;;;;;10451663;28;20197;-79
2021/04/14 13:07:53;;;;;;;3.17;2.97;;;11.90;51.20;;;;;;10469124;28;20668;-79
2021/04/14 13:12:55;;;;;;;3.30;3.10;;;11.80;51.30;;;;;;10492545;28;20223;-79
2021/04/14 13:18:00;;;;;;;3.23;3.03;;;11.70;51.20;;;;;;10491826;28;20203;-79
2021/04/14 13:23:11;;;;;;;6.67;3.20;;;11.50;51.80;;;;;;10502026;28;20193;-80
2021/04/14 13:28:18;;;;;;;2.63;2.43;;;11.50;52.00;;;;;;10503277;28;20287;-79
2021/04/14 13:33:28;;;;;;;3.00;2.90;;;11.50;50.90;;;;;;10506563;28;20224;-79
2021/04/14 13:38:32;;;;;;;3.67;3.37;;;11.50;52.10;;;;;;10505720;28;20196;-80
2021/04/14 13:43:39;;;;;;;4.03;3.60;;;11.50;51.70;;;;;;10506218;28;20212;-79
2021/04/14 13:48:50;;;;;;;3.40;3.10;;;11.30;51.40;;;;;;10504873;28;20212;-79
2021/04/14 14:00:19;;;;;;;4.57;3.00;;;11.30;50.80;;;;;;10503930;28;20180;-80
2021/04/14 14:05:26;;;;;;;3.90;3.60;;;11.20;50.40;;;;;;10506351;28;20212;-80
2021/04/14 14:10:32;;;;;;;3.10;2.90;;;11.20;51.90;;;;;;10503067;28;20637;-80
2021/04/14 14:15:39;;;;;;;3.57;3.27;;;11.10;51.50;;;;;;10504944;28;20216;-80
2021/04/14 14:20:42;;;;;;;5.60;3.90;;;11.00;51.30;;;;;;10518387;28;20196;-79
2021/04/14 14:32:09;;;;;;;5.50;4.30;;;11.00;51.90;;;;;;10504086;28;20244;-80
2021/04/14 14:37:15;;;;;;;4.30;3.90;;;11.00;54.40;;;;;;10501578;28;20683;-79
2021/04/14 14:42:20;;;;;;;4.13;3.73;;;11.10;55.90;;;;;;10504230;28;20292;-79
2021/04/14 14:47:22;;;;;;;3.70;3.47;;;11.10;55.90;;;;;;10503649;28;20583;-79
2021/04/14 14:52:28;;;;;;;3.90;3.60;;;11.20;56.70;;;;;;10504275;28;20204;-79
2021/04/14 14:58:09;;;;;;;3.73;3.43;;;11.10;56.90;;;;;;10487824;22;20225;-82
2021/04/14 15:03:12;;;;;;;3.30;3.10;;;11.10;56.80;;;;;;10460402;28;20846;-82
2021/04/14 15:08:14;;;;;;;4.07;3.80;;;11.10;55.20;;;;;;10499341;28;20216;-82
2021/04/14 15:13:16;;;;;;;4.37;3.97;;;10.90;56.80;;;;;;10501060;28;20236;-82
2021/04/14 15:18:18;;;;;;;3.57;3.37;;;10.80;57.70;;;;;;10482134;28;20571;-82
2021/04/14 15:23:24;;;;;;;4.10;3.80;;;10.70;57.40;;;;;;10499059;28;20721;-81
2021/04/14 15:28:26;;;;;;;3.47;3.27;;;10.40;57.90;;;;;;10483343;28;20192;-79
2021/04/14 15:33:28;;;;;;;3.80;3.50;;;10.20;56.30;;;;;;10499540;28;20216;-79
2021/04/14 15:38:31;;;;;;;3.20;3.00;;;10.10;55.50;;;;;;10500364;28;20177;-79
2021/04/14 15:43:33;;;;;;;3.80;3.60;;;9.90;57.00;;;;;;10496034;28;20219;-82
2021/04/14 15:48:35;;;;;;;3.73;3.37;;;9.80;58.10;;;;;;10497729;28;20185;-79
2021/04/14 15:53:37;;;;;;;5.03;3.10;;;9.70;57.30;;;;;;10497850;28;20217;-79
2021/04/14 15:58:39;;;;;;;3.90;3.70;;;9.70;58.90;;;;;;10496942;28;20241;-80
2021/04/14 16:03:44;;;;;;;3.77;3.50;;;9.80;58.60;;;;;;10497197;28;20299;-80
2021/04/14 16:08:47;;;;;;;5.43;3.90;;;9.80;58.90;;;;;;10497501;28;20283;-80
2021/04/14 16:13:48;;;;;;;4.43;4.03;;;9.90;58.50;;;;;;10498862;28;20596;-81
2021/04/14 16:18:52;;;;;;;4.00;3.70;;;9.90;61.00;;;;;;10496032;28;20192;-78
2021/04/14 16:23:57;;;;;;;4.57;4.20;;;10.00;59.00;;;;;;10496336;28;20628;-80
2021/04/14 16:28:59;;;;;;;5.00;4.70;;;10.00;59.20;;;;;;10495627;28;20302;-81
2021/04/14 16:34:03;;;;;;;3.90;3.70;;;10.10;57.90;;;;;;10494672;28;20220;-81
2021/04/14 16:39:09;;;;;;;3.53;3.30;;;10.10;57.20;;;;;;10495849;28;20193;-81
2021/04/14 16:44:11;;;;;;;4.67;3.97;;;10.10;57.30;;;;;;10496985;28;20205;-81
2021/04/14 16:49:16;;;;;;;4.10;3.90;;;10.10;57.30;;;;;;10497382;28;20199;-81
2021/04/14 16:54:18;;;;;;;4.27;4.07;;;10.00;57.80;;;;;;10498119;28;20228;-80
2021/04/14 16:59:22;;;;;;;4.10;3.83;;;9.80;59.10;;;;;;10480516;28;20220;-80
2021/04/14 17:04:26;;;;;;;4.60;4.20;;;9.70;58.60;;;;;;10496920;28;20236;-81
2021/04/14 17:09:29;;;;;;;4.10;3.70;;;9.70;58.80;;;;;;10495829;28;20193;-79
2021/04/14 17:14:30;;;;;;;3.53;3.33;;;9.60;58.70;;;;;;10496898;28;20220;-79
2021/04/14 17:19:32;;;;;;;4.00;3.60;;;9.50;57.30;;;;;;10495309;28;20231;-81
2021/04/14 17:24:35;;;;;;;3.10;2.90;;;9.50;57.40;;;;;;10478593;28;20611;-80
2021/04/14 17:29:46;;;;;;;3.80;3.50;;;9.30;58.20;;;;;;10494933;28;20188;-78
2021/04/14 17:34:48;;;;;;;3.80;3.50;;;9.30;58.50;;;;;;10496672;28;20307;-79
2021/04/14 17:40:18;;;;;;;3.63;3.33;;;9.20;58.10;;;;;;10495462;28;20184;-79
2021/04/14 17:45:21;;;;;;;3.40;3.17;;;9.20;57.60;;;;;;10494078;28;20600;-78
2021/04/14 17:50:26;;;;;;;4.00;3.30;;;9.10;57.30;;;;;;10496345;28;20181;-79
2021/04/14 17:55:31;;;;;;;3.50;3.03;;;9.10;56.50;;;;;;10496459;28;20293;-78
2021/04/14 18:00:36;;;;;;;3.43;3.13;;;9.10;55.70;;;;;;10495983;28;20177;-83
2021/04/14 18:05:38;;;;;;;3.73;3.43;;;9.10;55.80;;;;;;10481695;28;20747;-81
2021/04/14 18:10:42;;;;;;;3.17;2.97;;;9.00;56.20;;;;;;10504588;28;20199;-80
2021/04/14 18:16:41;;;;;;;;;;;;;;;;;;;;;
2021/04/14 18:22:12;;;;;;;4.30;4.00;;;9.00;56.60;;;;;;10458414;28;20204;-82
2021/04/14 18:27:15;;;;;;;3.50;3.30;;;9.00;57.10;;;;;;10487388;28;20242;-81
2021/04/14 18:32:16;;;;;;;2.90;2.50;;;9.00;57.00;;;;;;10503777;28;20714;-83
2021/04/14 18:37:18;;;;;;;3.33;3.03;;;9.00;55.10;;;;;;10503470;28;20217;-82
2021/04/14 18:42:27;;;;;;;3.27;3.00;;;8.90;55.40;;;;;;10487331;28;20201;-82
2021/04/14 18:47:30;;;;;;;3.00;2.80;;;8.80;56.40;;;;;;10504403;28;20228;-83
2021/04/14 18:52:33;;;;;;;3.37;2.80;;;8.70;57.10;;;;;;10488221;28;20264;-83
2021/04/14 18:57:36;;;;;;;4.80;4.50;;;8.60;58.00;;;;;;10504160;28;20216;-84
2021/04/14 19:02:40;;;;;;;4.37;4.07;;;8.50;59.30;;;;;;10504593;28;20203;-84
2021/04/14 19:07:45;;;;;;;5.93;5.10;;;8.40;60.10;;;;;;10505119;28;20212;-82
2021/04/14 19:12:48;;;;;;;5.60;5.10;;;8.10;62.40;;;;;;10508182;28;20232;-83
2021/04/14 19:17:54;;;;;;;5.30;4.90;;;7.80;63.80;;;;;;10487088;28;20216;-83
2021/04/14 19:22:58;;;;;;;9.30;8.03;;;7.60;64.90;;;;;;10505202;28;20203;-82
2021/04/14 19:28:01;;;;;;;6.10;5.60;;;7.50;66.10;;;;;;10492638;28;20790;-82
2021/04/14 19:33:06;;;;;;;5.77;5.37;;;7.40;66.70;;;;;;10486902;28;20216;-81
2021/04/14 19:38:10;;;;;;;5.87;5.37;;;7.30;67.50;;;;;;10484558;28;20220;-83
2021/04/14 19:43:12;;;;;;;5.60;5.20;;;7.20;68.20;;;;;;10503567;28;20232;-83
2021/04/14 19:48:14;;;;;;;6.73;6.23;;;7.10;68.60;;;;;;10486406;28;20244;-82
2021/04/14 19:53:18;;;;;;;8.27;5.73;;;6.90;68.90;;;;;;10484925;28;20217;-82
2021/04/14 19:58:21;;;;;;;5.50;5.10;;;6.80;69.30;;;;;;10483981;28;20201;-81
2021/04/14 20:03:23;;;;;;;5.33;4.93;;;6.60;69.80;;;;;;10484046;28;20205;-82
2021/04/14 20:08:24;;;;;;;4.90;4.50;;;6.60;70.00;;;;;;10499996;28;20556;-83
2021/04/14 20:13:27;;;;;;;6.10;5.50;;;6.50;70.00;;;;;;10485966;28;20209;-81
2021/04/14 20:18:31;;;;;;;4.87;4.50;;;6.50;71.10;;;;;;10500584;28;20250;-81
2021/04/14 20:23:32;;;;;;;5.47;4.97;;;6.50;70.00;;;;;;10501283;28;20199;-81
2021/04/14 20:28:35;;;;;;;4.60;4.20;;;6.50;70.10;;;;;;10499800;28;20193;-81
2021/04/14 20:33:39;;;;;;;5.73;5.23;;;6.50;70.00;;;;;;10484586;28;20228;-82
2021/04/14 20:38:41;;;;;;;5.70;5.20;;;6.40;70.40;;;;;;10501392;28;20193;-81
2021/04/14 20:43:44;;;;;;;5.30;4.90;;;6.30;71.30;;;;;;10484414;28;20243;-81
2021/04/14 20:48:45;;;;;;;4.93;4.13;;;6.30;71.50;;;;;;10500392;28;20203;-82
2021/04/14 20:53:47;;;;;;;5.50;5.00;;;6.30;71.70;;;;;;10526273;22;20299;-79
2021/04/14 20:58:50;;;;;;;5.13;4.73;;;6.20;72.50;;;;;;10520631;28;20215;-79
2021/04/14 21:03:51;;;;;;;6.30;5.80;;;6.00;72.40;;;;;;10520675;28;20227;-79
2021/04/14 21:08:53;;;;;;;6.33;5.80;;;5.90;73.00;;;;;;10522961;28;20192;-79
2021/04/14 21:13:56;;;;;;;8.03;5.80;;;5.70;73.30;;;;;;10539264;28;20215;-79
2021/04/14 21:18:57;;;;;;;5.33;4.97;;;5.70;73.70;;;;;;10540604;28;20222;-79
2021/04/14 21:24:12;;;;;;;5.50;5.10;;;5.60;73.80;;;;;;10538700;28;20567;-80
2021/04/14 21:29:14;;;;;;;6.07;5.40;;;5.60;74.20;;;;;;10541310;28;20240;-79
2021/04/14 21:34:21;;;;;;;6.23;5.63;;;5.50;74.30;;;;;;10542972;28;20224;-80
2021/04/14 21:39:44;;;;;;;6.20;5.60;;;5.40;73.90;;;;;;10543096;28;20291;-80
2021/04/14 21:44:46;;;;;;;7.23;6.53;;;5.40;74.10;;;;;;10534160;28;20214;-80
2021/04/14 21:49:48;;;;;;;7.23;6.53;;;5.30;74.60;;;;;;10544460;28;20396;-79
2021/04/14 21:55:01;;;;;;;6.30;5.80;;;5.20;75.10;;;;;;10548217;28;20233;-79
2021/04/14 22:00:10;;;;;;;7.27;6.60;;;5.10;74.30;;;;;;10549073;28;20188;-79
2021/04/14 22:05:13;;;;;;;8.63;5.10;;;5.00;74.80;;;;;;10546480;28;20702;-79
2021/04/14 22:10:16;;;;;;;6.20;5.70;;;5.00;75.20;;;;;;10546770;28;20198;-79
2021/04/14 22:15:19;;;;;;;6.77;6.07;;;4.90;75.40;;;;;;10546184;28;20234;-79
2021/04/14 22:20:23;;;;;;;6.03;5.63;;;4.90;75.40;;;;;;10546789;28;20184;-79
2021/04/14 22:25:27;;;;;;;6.83;6.23;;;4.90;76.00;;;;;;10546608;28;20272;-79
2021/04/14 22:30:32;;;;;;;6.33;5.83;;;4.90;75.60;;;;;;10530129;28;20217;-80
2021/04/14 22:35:35;;;;;;;7.37;6.67;;;4.80;75.80;;;;;;10572839;28;20288;-79
2021/04/14 22:40:37;;;;;;;7.10;6.60;;;4.80;76.20;;;;;;10528164;28;20199;-80
2021/04/14 22:45:40;;;;;;;6.50;5.90;;;4.80;76.80;;;;;;10544869;28;20204;-80
2021/04/14 22:50:42;;;;;;;7.87;7.27;;;4.80;76.70;;;;;;10547491;28;20233;-80
2021/04/14 22:55:44;;;;;;;8.57;7.53;;;4.70;77.00;;;;;;10533529;28;20228;-79
2021/04/14 23:00:49;;;;;;;8.00;7.40;;;4.70;77.40;;;;;;10548489;28;20203;-80
2021/04/14 23:05:51;;;;;;;9.27;8.43;;;4.70;77.80;;;;;;10546488;28;20685;-80
2021/04/14 23:10:55;;;;;;;8.20;7.50;;;4.70;78.30;;;;;;10548546;28;20806;-79
2021/04/14 23:15:57;;;;;;;8.43;7.60;;;4.60;78.70;;;;;;10546446;28;21010;-79
2021/04/14 23:20:59;;;;;;;10.07;8.10;;;4.60;79.30;;;;;;10546773;28;20682;-80
2021/04/14 23:26:02;;;;;;;9.70;8.90;;;4.70;79.60;;;;;;10549934;28;20211;-80
2021/04/14 23:31:04;;;;;;;9.40;8.60;;;4.60;80.30;;;;;;10537111;28;20215;-79
2021/04/14 23:36:07;;;;;;;8.73;8.00;;;4.60;80.10;;;;;;10545864;28;20223;-79
2021/04/14 23:41:09;;;;;;;9.33;8.63;;;4.60;80.50;;;;;;10545514;28;20223;-79
2021/04/14 23:46:12;;;;;;;9.77;8.87;;;4.60;80.50;;;;;;10545192;28;20227;-79
2021/04/14 23:51:13;;;;;;;9.87;8.97;;;4.60;80.90;;;;;;10544027;28;20188;-80
2021/04/14 23:56:15;;;;;;;9.80;9.00;;;4.60;80.70;;;;;;10544237;28;20714;-79
